createdAt,value
2018-03-24T00:00:40.848Z,82.46
2018-03-24T00:01:41.075Z,82.74
2018-03-24T00:02:41.306Z,82.74
2018-03-24T00:03:41.527Z,83.22
2018-03-24T00:04:41.745Z,82.74
2018-03-24T00:05:41.974Z,82.84
2018-03-24T00:06:42.197Z,82.65
2018-03-24T00:07:42.430Z,82.84
2018-03-24T00:08:42.652Z,82.74
2018-03-24T00:09:42.879Z,83.22
2018-03-24T00:10:43.106Z,83.22
2018-03-24T00:11:43.330Z,83.03
2018-03-24T00:12:43.553Z,83.40
2018-03-24T00:13:43.777Z,83.40
2018-03-24T00:14:44.001Z,83.12
2018-03-24T00:15:44.229Z,83.12
2018-03-24T00:16:44.455Z,82.93
2018-03-24T00:17:44.681Z,83.03
2018-03-24T00:18:44.904Z,83.31
2018-03-24T00:19:45.127Z,83.22
2018-03-24T00:20:45.354Z,83.12
2018-03-24T00:21:45.585Z,83.12
2018-03-24T00:22:45.810Z,82.65
2018-03-24T00:23:46.036Z,83.22
2018-03-24T00:24:46.261Z,83.31
2018-03-24T00:25:46.488Z,83.40
2018-03-24T00:26:46.710Z,82.84
2018-03-24T00:27:46.937Z,82.74
2018-03-24T00:28:47.165Z,82.17
2018-03-24T00:29:47.390Z,82.65
2018-03-24T00:30:47.617Z,82.17
2018-03-24T00:31:47.841Z,82.46
2018-03-24T00:32:48.062Z,82.93
2018-03-24T00:33:48.288Z,82.74
2018-03-24T00:34:48.511Z,82.74
2018-03-24T00:35:48.735Z,82.46
2018-03-24T00:36:48.963Z,81.88
2018-03-24T00:37:49.192Z,81.70
2018-03-24T00:38:49.417Z,81.23
2018-03-24T00:39:49.638Z,81.23
2018-03-24T00:40:49.863Z,81.60
2018-03-24T00:41:50.089Z,81.98
2018-03-24T00:42:50.319Z,81.88
2018-03-24T00:43:50.540Z,82.84
2018-03-24T00:44:50.832Z,82.93
2018-03-24T00:45:50.995Z,83.12
2018-03-24T00:46:51.221Z,82.74
2018-03-24T00:47:51.450Z,82.84
2018-03-24T00:48:51.679Z,82.08
2018-03-24T00:49:51.904Z,82.55
2018-03-24T00:50:52.130Z,82.36
2018-03-24T00:51:52.360Z,82.93
2018-03-24T00:52:52.577Z,82.74
2018-03-24T00:53:52.801Z,82.65
2018-03-24T00:54:53.031Z,82.27
2018-03-24T00:55:53.256Z,82.65
2018-03-24T00:56:53.479Z,81.88
2018-03-24T00:57:53.710Z,82.27
2018-03-24T00:58:53.934Z,82.65
2018-03-24T00:59:54.159Z,82.74
2018-03-24T01:00:54.385Z,82.55
2018-03-24T01:01:54.608Z,82.74
2018-03-24T01:02:54.828Z,83.03
2018-03-24T01:03:55.046Z,83.03
2018-03-24T01:04:55.272Z,82.08
2018-03-24T01:05:55.502Z,82.36
2018-03-24T01:06:55.727Z,82.84
2018-03-24T01:07:55.953Z,81.98
2018-03-24T01:08:56.178Z,82.17
2018-03-24T01:09:56.409Z,82.55
2018-03-24T01:10:56.628Z,82.36
2018-03-24T01:11:56.857Z,81.88
2018-03-24T01:12:57.091Z,82.27
2018-03-24T01:13:57.309Z,82.93
2018-03-24T01:14:57.537Z,82.84
2018-03-24T01:15:57.762Z,82.36
2018-03-24T01:16:57.982Z,82.27
2018-03-24T01:17:58.208Z,82.55
2018-03-24T01:18:58.437Z,82.65
2018-03-24T01:19:58.661Z,82.65
2018-03-24T01:20:58.885Z,82.65
2018-03-24T01:21:59.109Z,82.46
2018-03-24T01:22:59.340Z,82.79
2018-03-24T01:23:59.567Z,83.46
2018-03-24T01:24:59.790Z,84.03
2018-03-24T01:26:00.017Z,83.65
2018-03-24T01:27:00.242Z,83.55
2018-03-24T01:28:00.470Z,83.94
2018-03-24T01:29:00.692Z,84.78
2018-03-24T01:30:00.916Z,84.22
2018-03-24T01:31:01.149Z,84.69
2018-03-24T01:32:01.373Z,84.22
2018-03-24T01:33:01.594Z,83.78
2018-03-24T01:34:01.828Z,83.84
2018-03-24T01:35:02.053Z,84.03
2018-03-24T01:36:02.285Z,84.41
2018-03-24T01:37:02.513Z,83.69
2018-03-24T01:38:02.725Z,83.74
2018-03-24T01:39:02.950Z,83.40
2018-03-24T01:40:03.174Z,84.03
2018-03-24T01:41:03.405Z,83.84
2018-03-24T01:42:03.625Z,83.94
2018-03-24T01:43:03.850Z,84.36
2018-03-24T01:44:04.079Z,83.46
2018-03-24T01:45:04.306Z,83.12
2018-03-24T01:46:04.533Z,83.12
2018-03-24T01:47:04.760Z,83.36
2018-03-24T01:48:04.988Z,83.74
2018-03-24T01:49:05.213Z,84.03
2018-03-24T01:50:05.440Z,83.55
2018-03-24T01:51:05.670Z,83.36
2018-03-24T01:52:05.891Z,83.55
2018-03-24T01:53:06.112Z,83.94
2018-03-24T01:54:06.349Z,83.69
2018-03-24T01:55:06.559Z,82.65
2018-03-24T01:56:06.798Z,82.46
2018-03-24T01:57:07.022Z,81.70
2018-03-24T01:58:07.242Z,81.98
2018-03-24T01:59:07.471Z,81.98
2018-03-24T02:00:07.696Z,82.84
2018-03-24T02:01:07.922Z,81.79
2018-03-24T02:02:08.148Z,82.17
2018-03-24T02:03:08.375Z,82.84
2018-03-24T02:04:08.604Z,83.22
2018-03-24T02:05:08.827Z,83.40
2018-03-24T02:06:09.051Z,82.98
2018-03-24T02:07:09.279Z,83.17
2018-03-24T02:08:09.511Z,83.36
2018-03-24T02:09:09.736Z,83.74
2018-03-24T02:10:09.964Z,83.84
2018-03-24T02:11:10.186Z,83.84
2018-03-24T02:12:10.410Z,83.27
2018-03-24T02:13:10.642Z,83.03
2018-03-24T02:14:10.874Z,82.84
2018-03-24T02:15:11.097Z,82.93
2018-03-24T02:16:11.319Z,82.51
2018-03-24T02:17:11.547Z,82.93
2018-03-24T02:18:11.768Z,82.36
2018-03-24T02:19:11.988Z,81.79
2018-03-24T02:20:12.213Z,82.65
2018-03-24T02:21:12.453Z,82.70
2018-03-24T02:22:12.671Z,82.70
2018-03-24T02:23:12.893Z,82.93
2018-03-24T02:24:13.119Z,83.17
2018-03-24T02:25:13.342Z,84.03
2018-03-24T02:26:13.571Z,83.46
2018-03-24T02:27:13.796Z,83.36
2018-03-24T02:28:14.020Z,83.74
2018-03-24T02:29:14.251Z,83.74
2018-03-24T02:30:14.476Z,84.31
2018-03-24T02:31:14.706Z,84.03
2018-03-24T02:32:14.928Z,84.03
2018-03-24T02:33:15.156Z,84.03
2018-03-24T02:34:15.387Z,83.65
2018-03-24T02:35:15.620Z,82.84
2018-03-24T02:36:15.837Z,82.46
2018-03-24T02:37:16.054Z,81.98
2018-03-24T02:38:16.288Z,82.74
2018-03-24T02:39:16.506Z,82.79
2018-03-24T02:40:16.728Z,83.08
2018-03-24T02:41:16.958Z,83.84
2018-03-24T02:42:17.179Z,83.94
2018-03-24T02:43:17.426Z,83.94
2018-03-24T02:44:17.650Z,83.27
2018-03-24T02:45:17.885Z,83.08
2018-03-24T02:46:18.096Z,83.46
2018-03-24T02:47:18.316Z,84.03
2018-03-24T02:48:18.546Z,83.46
2018-03-24T02:49:18.770Z,83.94
2018-03-24T02:50:18.996Z,84.31
2018-03-24T02:51:19.223Z,83.74
2018-03-24T02:52:19.453Z,84.12
2018-03-24T02:53:19.675Z,84.69
2018-03-24T02:54:19.900Z,84.31
2018-03-24T02:55:20.126Z,84.12
2018-03-24T02:56:20.352Z,83.74
2018-03-24T02:57:20.578Z,84.12
2018-03-24T02:58:20.800Z,84.12
2018-03-24T02:59:21.040Z,83.08
2018-03-24T03:00:21.248Z,83.08
2018-03-24T03:01:21.472Z,82.42
2018-03-24T03:02:21.697Z,82.60
2018-03-24T03:03:21.929Z,82.23
2018-03-24T03:04:22.165Z,81.56
2018-03-24T03:05:22.393Z,81.85
2018-03-24T03:06:22.620Z,81.32
2018-03-24T03:07:22.836Z,81.56
2018-03-24T03:08:23.072Z,82.27
2018-03-24T03:09:23.298Z,82.08
2018-03-24T03:10:23.521Z,81.98
2018-03-24T03:11:23.746Z,81.98
2018-03-24T03:12:23.971Z,81.85
2018-03-24T03:13:24.194Z,82.51
2018-03-24T03:14:24.409Z,82.79
2018-03-24T03:15:24.651Z,83.27
2018-03-24T03:16:24.875Z,83.17
2018-03-24T03:17:25.098Z,83.17
2018-03-24T03:18:25.322Z,82.70
2018-03-24T03:19:25.561Z,82.51
2018-03-24T03:20:25.780Z,82.70
2018-03-24T03:21:25.999Z,82.70
2018-03-24T03:22:26.221Z,82.70
2018-03-24T03:23:26.444Z,82.13
2018-03-24T03:24:26.669Z,82.42
2018-03-24T03:25:26.895Z,82.98
2018-03-24T03:26:27.121Z,82.60
2018-03-24T03:27:27.353Z,82.70
2018-03-24T03:28:27.569Z,83.17
2018-03-24T03:29:27.798Z,84.22
2018-03-24T03:30:28.025Z,83.94
2018-03-24T03:31:28.249Z,84.59
2018-03-24T03:32:28.477Z,85.07
2018-03-24T03:33:28.699Z,84.98
2018-03-24T03:34:28.926Z,84.78
2018-03-24T03:35:29.149Z,84.69
2018-03-24T03:36:29.374Z,84.78
2018-03-24T03:37:29.601Z,84.22
2018-03-24T03:38:29.825Z,84.59
2018-03-24T03:39:30.059Z,84.88
2018-03-24T03:40:30.283Z,84.88
2018-03-24T03:41:30.507Z,84.12
2018-03-24T03:42:30.740Z,84.69
2018-03-24T03:43:30.961Z,84.78
2018-03-24T03:44:31.185Z,84.59
2018-03-24T03:45:31.414Z,85.03
2018-03-24T03:46:31.639Z,84.31
2018-03-24T03:47:31.864Z,84.03
2018-03-24T03:48:32.095Z,84.41
2018-03-24T03:49:32.315Z,84.22
2018-03-24T03:50:32.535Z,83.74
2018-03-24T03:51:32.767Z,83.74
2018-03-24T03:52:32.989Z,83.36
2018-03-24T03:53:33.216Z,83.36
2018-03-24T03:54:33.441Z,83.84
2018-03-24T03:55:33.672Z,83.74
2018-03-24T03:56:33.899Z,84.31
2018-03-24T03:57:34.122Z,83.74
2018-03-24T03:58:34.356Z,84.03
2018-03-24T03:59:34.578Z,84.22
2018-03-24T04:00:34.805Z,84.22
2018-03-24T04:01:35.042Z,84.03
2018-03-24T04:02:35.258Z,84.50
2018-03-24T04:03:35.485Z,84.41
2018-03-24T04:04:35.709Z,84.59
2018-03-24T04:05:35.981Z,84.69
2018-03-24T04:06:36.165Z,84.69
2018-03-24T04:07:36.389Z,84.41
2018-03-24T04:08:36.616Z,84.59
2018-03-24T04:09:36.847Z,84.03
2018-03-24T04:10:37.067Z,84.31
2018-03-24T04:11:37.292Z,84.31
2018-03-24T04:12:37.515Z,84.41
2018-03-24T04:13:37.743Z,84.03
2018-03-24T04:14:37.960Z,84.50
2018-03-24T04:15:38.205Z,84.22
2018-03-24T04:16:38.419Z,84.12
2018-03-24T04:17:38.644Z,84.69
2018-03-24T04:18:38.864Z,83.46
2018-03-24T04:19:39.088Z,84.31
2018-03-24T04:20:39.308Z,84.12
2018-03-24T04:21:39.531Z,83.65
2018-03-24T04:22:39.760Z,83.84
2018-03-24T04:23:39.988Z,84.03
2018-03-24T04:24:40.210Z,84.31
2018-03-24T04:25:40.435Z,84.12
2018-03-24T04:26:40.658Z,84.41
2018-03-24T04:27:40.886Z,84.88
2018-03-24T04:28:41.113Z,84.78
2018-03-24T04:29:41.338Z,85.07
2018-03-24T04:30:41.563Z,85.17
2018-03-24T04:31:41.786Z,85.07
2018-03-24T04:32:42.013Z,84.78
2018-03-24T04:33:42.234Z,84.41
2018-03-24T04:34:42.451Z,84.50
2018-03-24T04:35:42.674Z,84.22
2018-03-24T04:36:42.899Z,83.55
2018-03-24T04:37:43.125Z,83.36
2018-03-24T04:38:43.350Z,83.94
2018-03-24T04:39:43.575Z,83.84
2018-03-24T04:40:43.800Z,83.74
2018-03-24T04:41:44.036Z,83.84
2018-03-24T04:42:44.260Z,83.84
2018-03-24T04:43:44.488Z,84.03
2018-03-24T04:44:44.705Z,83.74
2018-03-24T04:45:44.927Z,84.22
2018-03-24T04:46:45.154Z,83.65
2018-03-24T04:47:45.377Z,83.84
2018-03-24T04:48:45.595Z,84.31
2018-03-24T04:49:45.824Z,84.41
2018-03-24T04:50:46.046Z,85.22
2018-03-24T04:51:46.273Z,85.26
2018-03-24T04:52:46.497Z,85.03
2018-03-24T04:53:46.720Z,85.17
2018-03-24T04:54:46.945Z,84.98
2018-03-24T04:55:47.176Z,84.84
2018-03-24T04:56:47.404Z,85.07
2018-03-24T04:57:47.625Z,84.98
2018-03-24T04:58:47.848Z,84.59
2018-03-24T04:59:48.075Z,85.31
2018-03-24T05:00:48.293Z,85.13
2018-03-24T05:01:48.522Z,85.50
2018-03-24T05:02:48.747Z,85.41
2018-03-24T05:03:48.973Z,84.69
2018-03-24T05:04:49.206Z,84.74
2018-03-24T05:05:49.425Z,85.13
2018-03-24T05:06:49.648Z,84.98
2018-03-24T05:07:49.881Z,85.31
2018-03-24T05:08:50.097Z,85.26
2018-03-24T05:09:50.320Z,84.69
2018-03-24T05:10:50.548Z,84.12
2018-03-24T05:11:50.772Z,84.41
2018-03-24T05:12:51.006Z,84.69
2018-03-24T05:13:51.224Z,83.84
2018-03-24T05:14:51.449Z,84.22
2018-03-24T05:15:51.678Z,84.22
2018-03-24T05:16:51.905Z,84.31
2018-03-24T05:17:52.125Z,84.22
2018-03-24T05:18:52.345Z,84.78
2018-03-24T05:19:52.572Z,84.78
2018-03-24T05:20:52.805Z,84.98
2018-03-24T05:21:53.029Z,84.98
2018-03-24T05:22:53.254Z,84.88
2018-03-24T05:23:53.477Z,84.69
2018-03-24T05:24:53.702Z,84.41
2018-03-24T05:25:53.926Z,84.12
2018-03-24T05:26:54.152Z,84.41
2018-03-24T05:27:54.375Z,84.31
2018-03-24T05:28:54.644Z,84.22
2018-03-24T05:29:54.825Z,83.84
2018-03-24T05:30:55.047Z,83.65
2018-03-24T05:31:55.274Z,84.03
2018-03-24T05:32:55.501Z,83.84
2018-03-24T05:33:55.719Z,83.84
2018-03-24T05:34:55.949Z,83.74
2018-03-24T05:35:56.175Z,82.79
2018-03-24T05:36:56.400Z,82.79
2018-03-24T05:37:56.625Z,82.70
2018-03-24T05:38:56.850Z,82.89
2018-03-24T05:39:57.078Z,83.08
2018-03-24T05:40:57.304Z,82.42
2018-03-24T05:41:57.529Z,82.89
2018-03-24T05:42:57.761Z,82.70
2018-03-24T05:43:57.982Z,82.60
2018-03-24T05:44:58.209Z,82.79
2018-03-24T05:45:58.434Z,82.70
2018-03-24T05:46:58.660Z,82.23
2018-03-24T05:47:58.887Z,82.55
2018-03-24T05:48:59.111Z,82.79
2018-03-24T05:49:59.336Z,82.79
2018-03-24T05:50:59.561Z,83.17
2018-03-24T05:51:59.786Z,83.84
2018-03-24T05:53:00.020Z,83.94
2018-03-24T05:54:00.238Z,83.84
2018-03-24T05:55:00.460Z,84.03
2018-03-24T05:56:00.686Z,83.74
2018-03-24T05:57:00.912Z,83.74
2018-03-24T05:58:01.139Z,83.65
2018-03-24T05:59:01.376Z,83.46
2018-03-24T06:00:01.593Z,83.74
2018-03-24T06:01:01.820Z,83.36
2018-03-24T06:02:02.062Z,83.84
2018-03-24T06:03:02.271Z,83.65
2018-03-24T06:04:02.523Z,84.22
2018-03-24T06:05:02.729Z,83.84
2018-03-24T06:06:02.953Z,83.94
2018-03-24T06:07:03.179Z,83.74
2018-03-24T06:08:03.403Z,83.55
2018-03-24T06:09:03.630Z,83.74
2018-03-24T06:10:03.852Z,83.74
2018-03-24T06:11:04.080Z,84.22
2018-03-24T06:12:04.303Z,84.22
2018-03-24T06:13:04.534Z,84.69
2018-03-24T06:14:04.757Z,84.78
2018-03-24T06:15:04.980Z,84.98
2018-03-24T06:16:05.208Z,84.41
2018-03-24T06:17:05.438Z,84.88
2018-03-24T06:18:05.659Z,85.17
2018-03-24T06:19:05.884Z,84.50
2018-03-24T06:20:06.120Z,84.41
2018-03-24T06:21:06.337Z,84.31
2018-03-24T06:22:06.573Z,84.69
2018-03-24T06:23:06.834Z,83.94
2018-03-24T06:24:07.001Z,83.84
2018-03-24T06:25:07.229Z,84.59
2018-03-24T06:26:07.455Z,83.65
2018-03-24T06:27:07.680Z,83.84
2018-03-24T06:28:07.917Z,83.55
2018-03-24T06:29:08.142Z,83.94
2018-03-24T06:30:08.368Z,83.84
2018-03-24T06:31:08.590Z,83.88
2018-03-24T06:32:08.861Z,83.97
2018-03-24T06:33:09.044Z,83.59
2018-03-24T06:34:09.272Z,82.84
2018-03-24T06:35:09.502Z,83.03
2018-03-24T06:36:09.726Z,82.93
2018-03-24T06:37:09.947Z,82.46
2018-03-24T06:38:10.171Z,82.65
2018-03-24T06:39:10.398Z,82.46
2018-03-24T06:40:10.627Z,81.98
2018-03-24T06:41:10.853Z,81.60
2018-03-24T06:42:11.077Z,81.36
2018-03-24T06:43:11.301Z,80.75
2018-03-24T06:44:11.527Z,81.26
2018-03-24T06:45:11.756Z,81.32
2018-03-24T06:46:11.979Z,80.60
2018-03-24T06:47:12.210Z,80.51
2018-03-24T06:48:12.438Z,80.69
2018-03-24T06:49:12.656Z,80.37
2018-03-24T06:50:12.883Z,80.41
2018-03-24T06:51:13.106Z,80.51
2018-03-24T06:52:13.331Z,80.41
2018-03-24T06:53:13.557Z,80.51
2018-03-24T06:54:13.783Z,79.84
2018-03-24T06:55:14.006Z,80.13
2018-03-24T06:56:14.231Z,80.32
2018-03-24T06:57:14.462Z,79.36
2018-03-24T06:58:14.682Z,79.65
2018-03-24T06:59:14.913Z,79.65
2018-03-24T07:00:15.139Z,79.65
2018-03-24T07:01:15.371Z,79.94
2018-03-24T07:02:15.594Z,79.55
2018-03-24T07:03:15.820Z,79.36
2018-03-24T07:04:16.047Z,79.17
2018-03-24T07:05:16.274Z,79.46
2018-03-24T07:06:16.504Z,79.17
2018-03-24T07:07:16.730Z,79.94
2018-03-24T07:08:16.959Z,79.27
2018-03-24T07:09:17.182Z,79.08
2018-03-24T07:10:17.411Z,78.64
2018-03-24T07:11:17.638Z,79.03
2018-03-24T07:12:17.858Z,79.22
2018-03-24T07:13:18.083Z,78.83
2018-03-24T07:14:18.316Z,79.03
2018-03-24T07:15:18.547Z,78.83
2018-03-24T07:16:18.765Z,77.79
2018-03-24T07:17:19.000Z,78.08
2018-03-24T07:18:19.213Z,78.08
2018-03-24T07:19:19.441Z,77.79
2018-03-24T07:20:19.669Z,77.55
2018-03-24T07:21:19.909Z,77.07
2018-03-24T07:22:20.124Z,77.36
2018-03-24T07:23:20.358Z,77.64
2018-03-24T07:24:20.577Z,76.40
2018-03-24T07:25:20.804Z,75.55
2018-03-24T07:26:21.033Z,76.12
2018-03-24T07:27:21.260Z,75.84
2018-03-24T07:28:21.499Z,75.84
2018-03-24T07:29:21.709Z,74.98
2018-03-24T07:30:21.965Z,74.98
2018-03-24T07:31:22.161Z,76.16
2018-03-24T07:32:22.396Z,75.02
2018-03-24T07:33:22.615Z,75.02
2018-03-24T07:34:22.846Z,75.30
2018-03-24T07:35:23.070Z,75.02
2018-03-24T07:36:23.300Z,74.07
2018-03-24T07:37:23.527Z,74.44
2018-03-24T07:38:23.752Z,73.88
2018-03-24T07:39:23.975Z,74.07
2018-03-24T07:40:24.193Z,74.26
2018-03-24T07:41:24.420Z,74.26
2018-03-24T07:42:24.649Z,74.44
2018-03-24T07:43:24.873Z,74.16
2018-03-24T07:44:25.103Z,73.11
2018-03-24T07:45:25.331Z,72.45
2018-03-24T07:46:25.562Z,73.02
2018-03-24T07:47:25.790Z,72.55
2018-03-24T07:48:26.021Z,73.02
2018-03-24T07:49:26.245Z,72.74
2018-03-24T07:50:26.473Z,71.72
2018-03-24T07:51:26.697Z,71.63
2018-03-24T07:52:26.922Z,71.25
2018-03-24T07:53:27.150Z,72.45
2018-03-24T07:54:27.382Z,72.74
2018-03-24T07:55:27.610Z,72.26
2018-03-24T07:56:27.847Z,71.63
2018-03-24T07:57:28.066Z,70.77
2018-03-24T07:58:28.292Z,71.15
2018-03-24T07:59:28.526Z,70.49
2018-03-24T08:00:28.747Z,70.77
2018-03-24T08:01:28.973Z,69.54
2018-03-24T08:02:29.200Z,69.06
2018-03-24T08:03:29.427Z,68.87
2018-03-24T08:04:29.653Z,69.19
2018-03-24T08:05:29.890Z,69.29
2018-03-24T08:06:30.107Z,69.10
2018-03-24T08:07:30.362Z,68.90
2018-03-24T08:08:30.586Z,67.95
2018-03-24T08:09:30.807Z,67.76
2018-03-24T08:10:31.034Z,67.95
2018-03-24T08:11:31.264Z,69.19
2018-03-24T08:12:31.488Z,68.52
2018-03-24T08:13:31.723Z,68.33
2018-03-24T08:14:31.946Z,67.47
2018-03-24T08:15:32.180Z,67.57
2018-03-24T08:16:32.393Z,66.81
2018-03-24T08:17:32.617Z,68.52
2018-03-24T08:18:32.846Z,68.81
2018-03-24T08:19:33.075Z,68.15
2018-03-24T08:20:33.317Z,69.19
2018-03-24T08:21:33.539Z,68.62
2018-03-24T08:22:33.769Z,68.43
2018-03-24T08:23:33.989Z,68.24
2018-03-24T08:24:34.216Z,67.95
2018-03-24T08:25:34.453Z,67.86
2018-03-24T08:26:34.680Z,68.24
2018-03-24T08:27:34.902Z,67.47
2018-03-24T08:28:35.125Z,66.81
2018-03-24T08:29:35.354Z,66.81
2018-03-24T08:30:35.587Z,66.24
2018-03-24T08:31:35.820Z,66.56
2018-03-24T08:32:36.051Z,66.18
2018-03-24T08:33:36.277Z,66.27
2018-03-24T08:34:36.506Z,67.03
2018-03-24T08:35:36.738Z,65.70
2018-03-24T08:36:36.957Z,65.80
2018-03-24T08:37:37.195Z,64.94
2018-03-24T08:38:37.422Z,64.65
2018-03-24T08:39:37.649Z,64.37
2018-03-24T08:40:37.885Z,63.51
2018-03-24T08:41:38.104Z,62.49
2018-03-24T08:42:38.330Z,62.88
2018-03-24T08:43:38.563Z,62.02
2018-03-24T08:44:38.794Z,62.02
2018-03-24T08:45:39.023Z,62.12
2018-03-24T08:46:39.250Z,62.72
2018-03-24T08:47:39.481Z,62.59
2018-03-24T08:48:39.708Z,62.81
2018-03-24T08:49:39.938Z,61.96
2018-03-24T08:50:40.171Z,60.49
2018-03-24T08:51:40.402Z,60.59
2018-03-24T08:52:40.620Z,61.35
2018-03-24T08:53:40.850Z,61.45
2018-03-24T08:54:41.080Z,60.21
2018-03-24T08:55:41.309Z,59.92
2018-03-24T08:56:41.538Z,59.45
2018-03-24T08:57:41.765Z,58.87
2018-03-24T08:58:41.993Z,59.26
2018-03-24T08:59:42.220Z,58.21
2018-03-24T09:00:42.456Z,57.82
2018-03-24T09:01:42.679Z,57.45
2018-03-24T09:02:42.911Z,56.02
2018-03-24T09:03:43.140Z,57.54
2018-03-24T09:04:43.365Z,56.90
2018-03-24T09:05:43.581Z,56.33
2018-03-24T09:06:43.808Z,56.90
2018-03-24T09:07:44.033Z,57.28
2018-03-24T09:08:44.301Z,57.19
2018-03-24T09:09:44.490Z,56.04
2018-03-24T09:10:44.718Z,56.07
2018-03-24T09:11:44.946Z,56.55
2018-03-24T09:12:45.175Z,54.64
2018-03-24T09:13:45.408Z,55.79
2018-03-24T09:14:45.635Z,55.02
2018-03-24T09:15:45.864Z,54.45
2018-03-24T09:16:46.094Z,53.97
2018-03-24T09:17:46.324Z,54.14
2018-03-24T09:18:46.553Z,53.95
2018-03-24T09:19:46.789Z,54.14
2018-03-24T09:20:47.016Z,53.95
2018-03-24T09:21:47.245Z,53.85
2018-03-24T09:22:47.475Z,53.85
2018-03-24T09:23:47.754Z,54.52
2018-03-24T09:24:47.935Z,54.55
2018-03-24T09:25:48.167Z,54.07
2018-03-24T09:26:48.395Z,54.36
2018-03-24T09:27:48.627Z,52.73
2018-03-24T09:28:48.855Z,51.68
2018-03-24T09:29:49.085Z,49.02
2018-03-24T09:30:49.311Z,48.25
2018-03-24T09:31:49.546Z,47.87
2018-03-24T09:32:49.772Z,48.44
2018-03-24T09:33:49.998Z,49.87
2018-03-24T09:34:50.230Z,47.58
2018-03-24T09:35:50.457Z,46.73
2018-03-24T09:36:50.693Z,47.94
2018-03-24T09:37:50.923Z,48.44
2018-03-24T09:38:51.150Z,48.54
2018-03-24T09:39:51.389Z,48.92
2018-03-24T09:40:51.611Z,49.21
2018-03-24T09:41:51.842Z,49.11
2018-03-24T09:42:52.075Z,49.02
2018-03-24T09:43:52.302Z,49.47
2018-03-24T09:44:52.532Z,49.87
2018-03-24T09:45:52.763Z,50.07
2018-03-24T09:46:52.998Z,50.07
2018-03-24T09:47:53.224Z,49.21
2018-03-24T09:48:53.454Z,49.33
2018-03-24T09:49:53.684Z,48.16
2018-03-24T09:50:53.914Z,47.11
2018-03-24T09:51:54.144Z,47.39
2018-03-24T09:52:54.413Z,46.63
2018-03-24T09:53:54.600Z,46.34
2018-03-24T09:54:54.832Z,46.06
2018-03-24T09:55:55.068Z,46.44
2018-03-24T09:56:55.325Z,47.02
2018-03-24T09:57:55.558Z,46.92
2018-03-24T09:58:55.778Z,47.11
2018-03-24T09:59:56.026Z,47.20
2018-03-24T10:00:56.248Z,48.04
2018-03-24T10:01:56.471Z,48.25
2018-03-24T10:02:56.693Z,47.97
2018-03-24T10:03:56.923Z,47.02
2018-03-24T10:04:57.145Z,48.54
2018-03-24T10:05:57.378Z,48.25
2018-03-24T10:06:57.607Z,48.35
2018-03-24T10:07:57.842Z,47.58
2018-03-24T10:08:58.068Z,46.84
2018-03-24T10:09:58.298Z,47.20
2018-03-24T10:10:58.546Z,47.52
2018-03-24T10:11:58.763Z,48.35
2018-03-24T10:12:58.991Z,48.07
2018-03-24T10:13:59.218Z,47.11
2018-03-24T10:14:59.445Z,47.42
2018-03-24T10:15:59.693Z,47.03
2018-03-24T10:16:59.914Z,46.73
2018-03-24T10:18:00.146Z,46.63
2018-03-24T10:19:00.375Z,46.63
2018-03-24T10:20:00.612Z,46.73
2018-03-24T10:21:00.827Z,46.63
2018-03-24T10:22:01.057Z,46.54
2018-03-24T10:23:01.289Z,46.15
2018-03-24T10:24:01.514Z,46.63
2018-03-24T10:25:01.747Z,46.25
2018-03-24T10:26:01.973Z,46.25
2018-03-24T10:27:02.198Z,45.97
2018-03-24T10:28:02.430Z,45.58
2018-03-24T10:29:02.655Z,45.39
2018-03-24T10:30:02.887Z,45.65
2018-03-24T10:31:03.111Z,45.94
2018-03-24T10:32:03.343Z,46.42
2018-03-24T10:33:03.574Z,46.61
2018-03-24T10:34:03.802Z,46.61
2018-03-24T10:35:04.034Z,46.70
2018-03-24T10:36:04.262Z,46.61
2018-03-24T10:37:04.496Z,46.51
2018-03-24T10:38:04.722Z,46.80
2018-03-24T10:39:12.599Z,46.80
2018-03-24T10:40:05.184Z,46.42
2018-03-24T10:41:05.414Z,46.70
2018-03-24T10:42:05.643Z,46.92
2018-03-24T10:43:05.875Z,46.51
2018-03-24T10:44:06.103Z,46.80
2018-03-24T10:45:06.332Z,46.63
2018-03-24T10:46:06.567Z,46.70
2018-03-24T10:47:06.792Z,46.82
2018-03-24T10:48:07.020Z,47.39
2018-03-24T10:49:07.251Z,46.73
2018-03-24T10:50:07.482Z,46.44
2018-03-24T10:51:07.709Z,46.54
2018-03-24T10:52:07.941Z,46.54
2018-03-24T10:53:08.169Z,45.39
2018-03-24T10:54:08.398Z,45.58
2018-03-24T10:55:08.630Z,46.34
2018-03-24T10:56:08.861Z,46.63
2018-03-24T10:57:09.096Z,47.58
2018-03-24T10:58:09.326Z,46.25
2018-03-24T10:59:09.559Z,45.78
2018-03-24T11:00:09.780Z,46.15
2018-03-24T11:01:10.010Z,45.78
2018-03-24T11:02:10.237Z,44.92
2018-03-24T11:03:10.467Z,45.10
2018-03-24T11:04:10.757Z,45.49
2018-03-24T11:05:10.930Z,45.58
2018-03-24T11:06:11.156Z,45.39
2018-03-24T11:07:11.391Z,45.68
2018-03-24T11:08:11.653Z,45.97
2018-03-24T11:09:11.884Z,45.87
2018-03-24T11:10:12.112Z,45.58
2018-03-24T11:11:12.394Z,45.39
2018-03-24T11:12:12.570Z,45.20
2018-03-24T11:13:12.803Z,45.39
2018-03-24T11:14:13.027Z,45.79
2018-03-24T11:15:13.261Z,44.92
2018-03-24T11:16:13.495Z,45.20
2018-03-24T11:17:13.730Z,45.58
2018-03-24T11:18:13.956Z,45.78
2018-03-24T11:19:14.192Z,44.56
2018-03-24T11:20:14.415Z,44.27
2018-03-24T11:21:14.660Z,45.13
2018-03-24T11:22:14.882Z,43.98
2018-03-24T11:23:15.151Z,44.08
2018-03-24T11:24:15.365Z,44.94
2018-03-24T11:25:15.586Z,44.94
2018-03-24T11:26:15.823Z,45.32
2018-03-24T11:27:16.051Z,44.56
2018-03-24T11:28:16.280Z,44.27
2018-03-24T11:29:16.509Z,44.08
2018-03-24T11:30:16.742Z,43.13
2018-03-24T11:31:16.977Z,44.01
2018-03-24T11:32:17.201Z,43.79
2018-03-24T11:33:17.433Z,43.82
2018-03-24T11:34:17.673Z,43.53
2018-03-24T11:35:17.903Z,43.53
2018-03-24T11:36:18.129Z,43.24
2018-03-24T11:37:18.355Z,43.15
2018-03-24T11:38:18.589Z,42.10
2018-03-24T11:39:18.825Z,41.05
2018-03-24T11:40:19.045Z,42.38
2018-03-24T11:41:19.278Z,43.24
2018-03-24T11:42:19.504Z,43.15
2018-03-24T11:43:19.732Z,43.05
2018-03-24T11:44:19.980Z,42.29
2018-03-24T11:45:20.190Z,41.24
2018-03-24T11:46:20.411Z,40.76
2018-03-24T11:47:20.642Z,40.47
2018-03-24T11:48:20.874Z,40.86
2018-03-24T11:49:21.106Z,40.45
2018-03-24T11:50:21.335Z,39.98
2018-03-24T11:51:21.565Z,40.26
2018-03-24T11:52:21.791Z,40.55
2018-03-24T11:53:22.020Z,42.08
2018-03-24T11:54:22.249Z,42.53
2018-03-24T11:55:22.481Z,43.20
2018-03-24T11:56:22.709Z,42.63
2018-03-24T11:57:22.940Z,43.49
2018-03-24T11:58:23.169Z,43.75
2018-03-24T11:59:23.380Z,44.13
2018-03-24T12:00:23.627Z,45.56
2018-03-24T12:01:23.856Z,45.65
2018-03-24T12:02:24.116Z,45.94
2018-03-24T12:03:24.352Z,44.51
2018-03-24T12:04:24.581Z,44.80
2018-03-24T12:05:24.811Z,45.18
2018-03-24T12:06:25.044Z,45.75
2018-03-24T12:07:25.271Z,45.84
2018-03-24T12:08:25.505Z,44.15
2018-03-24T12:09:25.734Z,44.06
2018-03-24T12:10:25.969Z,42.44
2018-03-24T12:11:26.198Z,40.72
2018-03-24T12:12:26.428Z,41.29
2018-03-24T12:13:26.658Z,40.63
2018-03-24T12:14:26.891Z,41.48
2018-03-24T12:15:27.120Z,41.48
2018-03-24T12:16:27.352Z,41.58
2018-03-24T12:17:27.581Z,41.29
2018-03-24T12:18:27.802Z,41.48
2018-03-24T12:19:28.039Z,40.53
2018-03-24T12:20:28.266Z,41.29
2018-03-24T12:21:28.497Z,40.91
2018-03-24T12:22:28.733Z,41.77
2018-03-24T12:23:28.953Z,42.34
2018-03-24T12:24:29.183Z,41.60
2018-03-24T12:25:29.413Z,41.00
2018-03-24T12:26:29.641Z,41.67
2018-03-24T12:27:29.868Z,41.77
2018-03-24T12:28:30.105Z,41.86
2018-03-24T12:29:30.329Z,42.24
2018-03-24T12:30:30.551Z,42.13
2018-03-24T12:31:30.782Z,42.22
2018-03-24T12:32:31.010Z,42.70
2018-03-24T12:33:31.241Z,43.18
2018-03-24T12:34:31.477Z,43.46
2018-03-24T12:35:31.713Z,43.08
2018-03-24T12:36:31.938Z,43.18
2018-03-24T12:37:32.167Z,42.99
2018-03-24T12:38:32.393Z,42.70
2018-03-24T12:39:32.620Z,43.18
2018-03-24T12:40:32.847Z,42.89
2018-03-24T12:41:33.078Z,43.75
2018-03-24T12:42:33.311Z,44.60
2018-03-24T12:43:33.539Z,44.51
2018-03-24T12:44:33.776Z,43.46
2018-03-24T12:45:34.011Z,42.99
2018-03-24T12:46:34.233Z,42.99
2018-03-24T12:47:34.465Z,43.18
2018-03-24T12:48:34.696Z,43.18
2018-03-24T12:49:34.926Z,43.37
2018-03-24T12:50:35.150Z,43.27
2018-03-24T12:51:35.387Z,42.70
2018-03-24T12:52:35.610Z,42.51
2018-03-24T12:53:35.840Z,42.24
2018-03-24T12:54:36.072Z,42.15
2018-03-24T12:55:36.300Z,42.34